Time;durP1;ratioP1;P1;durP2;ratioP2;P2;SDS_P1;SDS_P2;PMS_P1;PMS_P2;Temp;Humidity;BMP_temperature;BMP_pressure;BME280_temperature;BME280_humidity;BME280_pressure;Samples;Min_cycle;Max_cycle;Signal;HPM_P1;HPM_P2
2021/10/02 00:35:32;;;;;;;3.53;1.60;;;;;;;;;;5033690;28;20601;-42
2021/10/02 00:38:12;;;;;;;1.65;1.25;;;;;;;;;;5027651;28;20268;-42
2021/10/02 00:46:08;;;;;;;1.33;1.23;;;;;;;;;;5023019;28;20221;-41
2021/10/02 00:48:35;;;;;;;1.60;1.30;;;;;;;;;;5022824;28;20187;-41
2021/10/02 00:51:01;;;;;;;2.50;1.70;;;;;;;;;;5015057;28;20184;-41
2021/10/02 00:53:28;;;;;;;1.50;1.40;;;;;;;;;;5014449;28;20172;-42
2021/10/02 00:55:54;;;;;;;2.25;1.50;;;;;;;;;;5020886;28;20229;-42
2021/10/02 00:58:20;;;;;;;4.18;1.55;;;;;;;;;;5027988;28;20606;-42
2021/10/02 01:00:48;;;;;;;1.80;1.48;;;;;;;;;;5035740;28;20227;-42
2021/10/02 01:03:33;;;;;;;1.95;1.35;;;;;;;;;;5025977;28;20210;-41
2021/10/02 01:06:17;;;;;;;2.60;1.52;;;;;;;;;;5036873;28;20867;-42
2021/10/02 01:08:43;;;;;;;1.58;1.20;;;;;;;;;;5026224;28;20195;-42
2021/10/02 01:11:09;;;;;;;2.80;1.40;;;;;;;;;;5028470;28;20180;-42
2021/10/02 01:13:54;;;;;;;1.42;1.23;;;;;;;;;;5036192;28;20183;-42
2021/10/02 01:16:29;;;;;;;2.25;1.38;;;;;;;;;;5022504;28;20582;-42
2021/10/02 01:19:14;;;;;;;1.98;1.40;;;;;;;;;;5031867;28;20740;-41
2021/10/02 01:21:55;;;;;;;1.52;1.42;;;;;;;;;;5024262;28;20271;-41
2021/10/02 01:24:27;;;;;;;2.50;1.30;;;;;;;;;;5018302;28;20515;-42
2021/10/02 01:27:07;;;;;;;1.60;1.40;;;;;;;;;;5024665;28;20173;-42
2021/10/02 01:29:34;;;;;;;2.85;1.50;;;;;;;;;;5018547;28;20191;-42
2021/10/02 01:34:58;;;;;;;1.40;1.30;;;;;;;;;;5017477;28;20180;-42
2021/10/02 01:37:46;;;;;;;1.83;1.15;;;;;;;;;;5026155;28;20586;-41
2021/10/02 01:47:09;;;;;;;2.08;1.33;;;;;;;;;;5034411;28;20194;-42
2021/10/02 01:48:39;;;;;;;1.50;1.20;;;;;;;;;;5028984;28;20195;-42
2021/10/02 01:51:05;;;;;;;1.42;1.33;;;;;;;;;;5032854;28;20176;-42
2021/10/02 01:53:34;;;;;;;1.00;0.98;;;;;;;;;;5022180;28;20197;-42
2021/10/02 01:56:02;;;;;;;1.27;1.17;;;;;;;;;;5022420;28;20179;-42
2021/10/02 01:58:28;;;;;;;1.88;1.45;;;;;;;;;;5017816;28;20181;-42
2021/10/02 02:00:56;;;;;;;2.42;1.45;;;;;;;;;;5020689;28;20216;-41
2021/10/02 02:03:23;;;;;;;1.60;1.40;;;;;;;;;;5034244;28;20539;-41
2021/10/02 02:05:49;;;;;;;2.50;1.40;;;;;;;;;;5029515;28;20204;-42
2021/10/02 02:08:16;;;;;;;1.65;1.33;;;;;;;;;;5017464;28;20190;-42
2021/10/02 02:10:43;;;;;;;1.95;1.40;;;;;;;;;;5030616;28;20204;-42
2021/10/02 02:13:11;;;;;;;1.63;1.42;;;;;;;;;;5026906;28;20176;-42
2021/10/02 02:15:37;;;;;;;1.58;1.25;;;;;;;;;;5031627;28;20187;-42
2021/10/02 02:18:08;;;;;;;1.58;1.30;;;;;;;;;;5017275;28;20187;-42
2021/10/02 02:20:35;;;;;;;1.48;1.30;;;;;;;;;;5017639;28;20189;-41
2021/10/02 02:23:02;;;;;;;1.40;1.05;;;;;;;;;;5016748;28;20187;-41
2021/10/02 02:25:28;;;;;;;1.10;1.10;;;;;;;;;;5027374;28;20212;-42
2021/10/02 02:27:55;;;;;;;2.47;1.30;;;;;;;;;;5024813;28;20184;-42
2021/10/02 02:30:21;;;;;;;2.72;1.52;;;;;;;;;;5032871;28;20241;-42
2021/10/02 02:32:49;;;;;;;1.55;1.33;;;;;;;;;;5036204;28;20547;-42
2021/10/02 02:35:17;;;;;;;2.30;1.20;;;;;;;;;;5031959;28;20184;-42
2021/10/02 02:37:43;;;;;;;1.85;1.33;;;;;;;;;;5023285;28;20215;-42
2021/10/02 02:40:09;;;;;;;1.85;1.20;;;;;;;;;;5018490;28;20212;-42
2021/10/02 02:42:35;;;;;;;1.70;1.30;;;;;;;;;;5029595;28;20308;-41
2021/10/02 02:45:01;;;;;;;1.35;1.25;;;;;;;;;;5035157;28;20562;-42
2021/10/02 02:47:29;;;;;;;1.35;1.25;;;;;;;;;;5036328;28;20168;-42
2021/10/02 02:50:00;;;;;;;1.20;1.10;;;;;;;;;;5033050;28;20167;-42
2021/10/02 02:52:31;;;;;;;1.33;1.23;;;;;;;;;;5017112;28;20414;-42
2021/10/02 02:54:57;;;;;;;1.48;1.20;;;;;;;;;;5026236;28;20563;-41
2021/10/02 02:57:26;;;;;;;1.98;1.35;;;;;;;;;;5036160;28;20187;-42
2021/10/02 03:00:00;;;;;;;1.80;1.70;;;;;;;;;;5033244;28;20448;-42
2021/10/02 03:02:27;;;;;;;1.33;1.20;;;;;;;;;;5015606;28;20242;-42
2021/10/02 03:04:54;;;;;;;1.30;1.20;;;;;;;;;;5034404;28;20257;-41
2021/10/02 03:07:21;;;;;;;3.00;1.35;;;;;;;;;;5019751;28;20180;-41
2021/10/02 03:09:51;;;;;;;1.33;1.23;;;;;;;;;;5029579;28;20201;-42
2021/10/02 03:12:18;;;;;;;1.65;1.42;;;;;;;;;;5019354;28;20168;-41
2021/10/02 03:14:46;;;;;;;3.75;1.35;;;;;;;;;;5015726;28;20540;-42
2021/10/02 03:17:13;;;;;;;1.50;1.40;;;;;;;;;;5018013;28;20184;-42
2021/10/02 03:19:39;;;;;;;2.03;1.50;;;;;;;;;;5035018;28;20203;-42
2021/10/02 03:22:07;;;;;;;1.52;1.42;;;;;;;;;;5023078;28;20258;-41
2021/10/02 03:24:36;;;;;;;1.63;1.52;;;;;;;;;;5025895;28;20683;-42
2021/10/02 03:27:03;;;;;;;1.20;1.10;;;;;;;;;;5023915;28;20199;-42
2021/10/02 03:29:29;;;;;;;1.90;1.75;;;;;;;;;;5035703;28;20190;-42
2021/10/02 03:31:56;;;;;;;1.80;1.70;;;;;;;;;;5035282;28;20180;-42
2021/10/02 03:34:22;;;;;;;1.98;1.70;;;;;;;;;;5035592;28;20187;-42
2021/10/02 03:36:48;;;;;;;2.60;1.65;;;;;;;;;;5023589;28;20177;-42
2021/10/02 03:39:16;;;;;;;1.88;1.65;;;;;;;;;;5017589;28;20173;-41
2021/10/02 03:41:42;;;;;;;2.00;1.80;;;;;;;;;;5015969;28;20566;-42
2021/10/02 03:44:08;;;;;;;1.90;1.75;;;;;;;;;;5032760;28;20206;-42
2021/10/02 03:46:34;;;;;;;2.33;1.73;;;;;;;;;;5022178;28;20208;-42
2021/10/02 03:49:00;;;;;;;2.72;1.80;;;;;;;;;;5030781;28;20183;-41
2021/10/02 03:51:26;;;;;;;1.92;1.73;;;;;;;;;;5027848;28;20168;-41
2021/10/02 03:53:52;;;;;;;1.80;1.70;;;;;;;;;;5032107;28;20250;-41
2021/10/02 03:56:18;;;;;;;2.17;1.98;;;;;;;;;;5024833;28;20188;-42
2021/10/02 03:58:44;;;;;;;1.67;1.58;;;;;;;;;;5021297;28;20176;-41
2021/10/02 04:01:10;;;;;;;3.78;2.00;;;;;;;;;;5017439;28;20630;-41
2021/10/02 04:03:36;;;;;;;2.10;1.90;;;;;;;;;;5023139;28;20192;-41
2021/10/02 04:06:02;;;;;;;2.22;1.85;;;;;;;;;;5026129;28;20294;-41
2021/10/02 04:08:29;;;;;;;2.83;1.60;;;;;;;;;;5016569;28;20848;-41
2021/10/02 04:10:55;;;;;;;3.40;2.33;;;;;;;;;;5016028;28;20267;-41
2021/10/02 04:13:21;;;;;;;2.40;2.00;;;;;;;;;;5034672;28;20247;-41
2021/10/02 04:15:47;;;;;;;2.53;2.10;;;;;;;;;;5032482;28;20288;-41
2021/10/02 04:18:13;;;;;;;1.95;1.70;;;;;;;;;;5034295;28;20187;-42
2021/10/02 04:20:39;;;;;;;4.40;1.90;;;;;;;;;;5029324;28;20250;-41
2021/10/02 04:23:05;;;;;;;3.35;1.80;;;;;;;;;;5019125;28;20743;-41
2021/10/02 04:25:32;;;;;;;2.15;1.90;;;;;;;;;;5027905;28;20240;-41
2021/10/02 04:27:58;;;;;;;1.85;1.65;;;;;;;;;;5015182;28;20164;-42
2021/10/02 04:30:24;;;;;;;1.90;1.80;;;;;;;;;;5019692;28;20186;-41
2021/10/02 04:32:50;;;;;;;2.95;1.95;;;;;;;;;;5031040;28;20260;-41
2021/10/02 04:35:16;;;;;;;2.67;2.08;;;;;;;;;;5027952;28;20172;-42
2021/10/02 04:37:42;;;;;;;1.83;1.73;;;;;;;;;;5023478;28;20190;-42
2021/10/02 04:40:08;;;;;;;2.20;1.50;;;;;;;;;;5033517;28;20179;-41
2021/10/02 04:42:34;;;;;;;2.20;1.95;;;;;;;;;;5022261;28;20618;-42
2021/10/02 04:45:00;;;;;;;3.72;2.00;;;;;;;;;;5014423;28;20200;-41
2021/10/02 04:47:27;;;;;;;4.30;1.90;;;;;;;;;;5029396;28;20171;-42
2021/10/02 04:49:53;;;;;;;1.45;1.35;;;;;;;;;;5031973;28;20184;-41
2021/10/02 04:52:19;;;;;;;3.08;2.20;;;;;;;;;;5034325;28;20178;-41
2021/10/02 04:54:45;;;;;;;5.68;2.15;;;;;;;;;;5024831;28;20214;-41
2021/10/02 04:57:11;;;;;;;5.68;2.10;;;;;;;;;;5025340;28;20543;-41
2021/10/02 04:59:37;;;;;;;9.02;3.20;;;;;;;;;;5023278;28;20196;-41
2021/10/02 05:02:03;;;;;;;6.28;2.30;;;;;;;;;;5019470;28;20290;-41
2021/10/02 05:04:29;;;;;;;5.68;2.10;;;;;;;;;;5027719;28;20188;-42
2021/10/02 05:06:55;;;;;;;7.70;3.08;;;;;;;;;;5026760;28;20231;-41
2021/10/02 05:09:21;;;;;;;4.25;2.65;;;;;;;;;;5017134;28;20172;-41
2021/10/02 05:11:47;;;;;;;4.38;2.42;;;;;;;;;;5019071;28;20177;-41
2021/10/02 05:14:13;;;;;;;3.53;2.45;;;;;;;;;;5014278;28;20215;-42
2021/10/02 05:16:39;;;;;;;4.28;2.50;;;;;;;;;;5014593;28;20177;-41
2021/10/02 05:19:05;;;;;;;3.88;2.22;;;;;;;;;;5014972;28;20176;-41
2021/10/02 05:21:31;;;;;;;5.38;2.03;;;;;;;;;;5026896;28;20454;-41
2021/10/02 05:23:57;;;;;;;4.43;2.30;;;;;;;;;;5024199;28;20579;-41
2021/10/02 05:26:23;;;;;;;5.55;2.35;;;;;;;;;;5014730;28;20348;-41
2021/10/02 05:28:49;;;;;;;3.88;2.40;;;;;;;;;;5025900;28;20470;-42
2021/10/02 05:31:16;;;;;;;2.50;1.90;;;;;;;;;;5032980;28;20176;-41
2021/10/02 05:33:42;;;;;;;4.60;2.60;;;;;;;;;;5031902;28;20551;-42
2021/10/02 05:36:08;;;;;;;4.85;2.30;;;;;;;;;;5022099;28;20211;-41
2021/10/02 05:38:34;;;;;;;3.15;2.03;;;;;;;;;;5014545;28;20527;-42
2021/10/02 05:41:00;;;;;;;2.40;2.20;;;;;;;;;;5014461;28;20185;-42
2021/10/02 05:43:26;;;;;;;2.13;2.03;;;;;;;;;;5017205;28;20338;-41
2021/10/02 05:45:52;;;;;;;2.17;1.85;;;;;;;;;;5022559;28;20279;-41
2021/10/02 05:48:18;;;;;;;3.65;1.80;;;;;;;;;;5035985;28;20555;-41
2021/10/02 05:50:45;;;;;;;4.63;2.20;;;;;;;;;;5018758;28;20181;-48
2021/10/02 05:53:11;;;;;;;4.03;1.90;;;;;;;;;;5017317;28;20177;-49
2021/10/02 05:55:37;;;;;;;3.53;1.80;;;;;;;;;;5030652;28;20183;-44
2021/10/02 05:58:03;;;;;;;9.90;2.42;;;;;;;;;;5035604;28;20263;-43
2021/10/02 06:00:29;;;;;;;7.25;1.88;;;;;;;;;;5031285;28;20188;-43
2021/10/02 06:03:01;;;;;;;3.22;1.90;;;;;;;;;;5019803;28;20202;-43
2021/10/02 06:05:27;;;;;;;2.75;1.70;;;;;;;;;;5032175;28;20234;-41
2021/10/02 06:07:54;;;;;;;4.47;1.75;;;;;;;;;;5017740;28;20172;-46
2021/10/02 06:10:20;;;;;;;12.80;2.47;;;;;;;;;;5022770;28;20221;-41
2021/10/02 06:12:46;;;;;;;10.32;2.00;;;;;;;;;;5026147;28;20744;-46
2021/10/02 06:15:12;;;;;;;2.53;1.60;;;;;;;;;;5017191;28;20192;-43
2021/10/02 06:17:38;;;;;;;3.63;1.50;;;;;;;;;;5030283;28;20184;-43
2021/10/02 06:20:07;;;;;;;3.53;1.38;;;;;;;;;;5019433;28;20181;-43
2021/10/02 06:22:33;;;;;;;2.28;1.60;;;;;;;;;;5025073;28;20176;-44
2021/10/02 06:24:59;;;;;;;3.67;1.50;;;;;;;;;;5031125;28;20257;-43
2021/10/02 06:27:25;;;;;;;1.80;1.50;;;;;;;;;;5035141;28;20186;-43
2021/10/02 06:29:51;;;;;;;3.55;1.42;;;;;;;;;;5024633;28;20265;-43
2021/10/02 06:32:17;;;;;;;3.58;1.60;;;;;;;;;;5017886;28;20184;-44
2021/10/02 06:34:42;;;;;;;5.47;1.63;;;;;;;;;;5028969;28;20241;-43
2021/10/02 06:37:08;;;;;;;6.40;1.77;;;;;;;;;;5025360;28;20246;-44
2021/10/02 06:39:34;;;;;;;3.92;1.67;;;;;;;;;;5030796;28;20186;-45
2021/10/02 06:42:00;;;;;;;6.57;1.45;;;;;;;;;;5036777;28;20597;-46
2021/10/02 06:44:26;;;;;;;3.63;1.38;;;;;;;;;;5032494;28;20176;-45
2021/10/02 06:46:52;;;;;;;3.08;1.30;;;;;;;;;;5020279;28;20429;-44
2021/10/02 06:49:21;;;;;;;3.40;1.30;;;;;;;;;;5026586;28;20259;-44
2021/10/02 06:51:47;;;;;;;5.78;1.60;;;;;;;;;;5018247;28;20623;-42
2021/10/02 06:54:14;;;;;;;4.20;1.60;;;;;;;;;;5027848;28;20259;-41
2021/10/02 06:56:41;;;;;;;2.05;1.60;;;;;;;;;;5019546;28;20460;-47
2021/10/02 06:59:07;;;;;;;6.10;1.60;;;;;;;;;;5016834;28;20193;-46
2021/10/02 07:01:32;;;;;;;3.08;1.52;;;;;;;;;;5031761;28;20215;-46
2021/10/02 07:03:58;;;;;;;4.10;1.63;;;;;;;;;;5023864;28;20184;-47
2021/10/02 07:06:24;;;;;;;2.72;1.38;;;;;;;;;;5025217;28;20203;-46
2021/10/02 07:08:50;;;;;;;3.35;1.58;;;;;;;;;;5017830;28;20192;-46
2021/10/02 07:11:16;;;;;;;1.83;1.15;;;;;;;;;;5016635;28;20249;-46
2021/10/02 07:13:42;;;;;;;5.38;1.58;;;;;;;;;;5016838;28;20521;-46
2021/10/02 07:16:08;;;;;;;6.80;1.67;;;;;;;;;;5023921;28;20211;-47
2021/10/02 07:18:34;;;;;;;5.63;1.88;;;;;;;;;;5028486;28;20678;-46
2021/10/02 07:21:00;;;;;;;6.70;1.70;;;;;;;;;;5020476;28;20287;-45
2021/10/02 07:23:29;;;;;;;4.07;1.77;;;;;;;;;;5027121;28;20275;-46
2021/10/02 07:25:58;;;;;;;15.77;2.65;;;;;;;;;;5032316;28;20227;-46
2021/10/02 07:28:24;;;;;;;10.55;2.92;;;;;;;;;;5030291;28;20547;-46
2021/10/02 07:30:50;;;;;;;9.05;2.88;;;;;;;;;;5031083;28;20199;-46
2021/10/02 07:33:16;;;;;;;10.38;2.63;;;;;;;;;;5015633;28;20250;-46
2021/10/02 07:35:42;;;;;;;15.20;2.72;;;;;;;;;;5026444;28;20195;-46
2021/10/02 07:38:08;;;;;;;9.82;3.25;;;;;;;;;;5030995;28;20179;-46
2021/10/02 07:40:36;;;;;;;11.70;3.25;;;;;;;;;;5026833;28;20453;-46
2021/10/02 07:43:03;;;;;;;10.82;3.10;;;;;;;;;;5030693;28;20175;-46
2021/10/02 07:45:29;;;;;;;7.30;2.97;;;;;;;;;;5035221;28;20247;-46
2021/10/02 07:47:56;;;;;;;13.25;3.50;;;;;;;;;;5035720;28;20206;-46
2021/10/02 07:50:22;;;;;;;16.48;3.40;;;;;;;;;;5034056;28;20172;-46
2021/10/02 07:52:50;;;;;;;10.88;3.00;;;;;;;;;;5023482;28;20176;-46
2021/10/02 07:55:17;;;;;;;9.60;3.35;;;;;;;;;;5027312;28;20267;-46
2021/10/02 07:57:44;;;;;;;7.78;2.85;;;;;;;;;;5034638;28;20585;-46
2021/10/02 08:00:11;;;;;;;6.45;2.97;;;;;;;;;;5016781;28;20193;-46
2021/10/02 08:02:37;;;;;;;9.48;2.92;;;;;;;;;;5015649;28;20193;-46
2021/10/02 08:05:03;;;;;;;11.30;3.40;;;;;;;;;;5032795;28;20196;-46
2021/10/02 08:07:30;;;;;;;6.20;2.70;;;;;;;;;;5021142;28;20258;-46
2021/10/02 08:09:56;;;;;;;11.38;3.30;;;;;;;;;;5027032;28;20180;-46
2021/10/02 08:12:23;;;;;;;10.48;3.05;;;;;;;;;;5015144;28;20192;-46
2021/10/02 08:14:49;;;;;;;12.38;2.63;;;;;;;;;;5014877;28;20195;-46
2021/10/02 08:17:16;;;;;;;7.20;2.65;;;;;;;;;;5015514;28;20188;-46
2021/10/02 08:19:42;;;;;;;9.00;2.72;;;;;;;;;;5025318;28;20233;-46
2021/10/02 08:22:10;;;;;;;7.38;2.38;;;;;;;;;;5035131;28;20176;-46
2021/10/02 08:24:36;;;;;;;6.20;2.78;;;;;;;;;;5030432;28;20175;-46
2021/10/02 08:27:03;;;;;;;7.10;2.72;;;;;;;;;;5024517;28;20183;-46
2021/10/02 08:29:30;;;;;;;7.13;2.67;;;;;;;;;;5033328;28;20263;-46
2021/10/02 08:31:56;;;;;;;8.10;2.47;;;;;;;;;;5034274;28;20180;-46
2021/10/02 08:34:23;;;;;;;5.15;2.25;;;;;;;;;;5034252;28;20174;-46
2021/10/02 08:36:49;;;;;;;7.53;2.63;;;;;;;;;;5018166;28;20191;-46
2021/10/02 08:39:16;;;;;;;7.60;2.45;;;;;;;;;;5016559;28;20167;-47
2021/10/02 08:41:42;;;;;;;7.10;2.67;;;;;;;;;;5020059;28;20231;-46
2021/10/02 08:44:10;;;;;;;6.68;2.15;;;;;;;;;;5014888;28;20227;-46
2021/10/02 08:46:36;;;;;;;8.60;2.03;;;;;;;;;;5027126;28;20236;-46
2021/10/02 08:49:13;;;;;;;7.45;2.38;;;;;;;;;;5015018;28;20172;-46
2021/10/02 08:51:41;;;;;;;6.32;2.30;;;;;;;;;;5028803;28;20256;-46
2021/10/02 08:54:08;;;;;;;4.82;2.28;;;;;;;;;;5024215;28;20206;-46
2021/10/02 08:56:35;;;;;;;6.90;2.50;;;;;;;;;;5021621;28;20267;-46
2021/10/02 08:59:02;;;;;;;6.50;2.17;;;;;;;;;;5015186;28;20283;-46
2021/10/02 09:01:28;;;;;;;4.05;2.30;;;;;;;;;;5026528;28;20199;-46
2021/10/02 09:03:55;;;;;;;5.65;2.45;;;;;;;;;;5025587;28;20313;-46
2021/10/02 09:06:21;;;;;;;4.20;2.08;;;;;;;;;;5029535;28;20207;-46
2021/10/02 09:08:47;;;;;;;3.63;2.25;;;;;;;;;;5014610;28;20441;-46
2021/10/02 09:11:13;;;;;;;3.88;2.30;;;;;;;;;;5029806;28;20187;-46
2021/10/02 09:13:39;;;;;;;3.00;1.73;;;;;;;;;;5032275;28;20191;-46
2021/10/02 09:16:05;;;;;;;2.53;1.75;;;;;;;;;;5015416;28;20180;-46
2021/10/02 09:18:31;;;;;;;4.57;1.88;;;;;;;;;;5030432;28;20450;-46
2021/10/02 09:21:04;;;;;;;3.20;1.75;;;;;;;;;;5038109;28;20203;-46
2021/10/02 09:23:32;;;;;;;4.55;1.88;;;;;;;;;;5026010;28;20238;-46
2021/10/02 09:25:59;;;;;;;4.10;1.88;;;;;;;;;;5018463;28;20216;-46
2021/10/02 09:28:36;;;;;;;2.88;1.55;;;;;;;;;;5021082;28;20222;-46
2021/10/02 09:31:06;;;;;;;3.28;1.60;;;;;;;;;;5034816;28;20176;-46
2021/10/02 09:33:32;;;;;;;4.78;2.00;;;;;;;;;;5018050;28;20207;-46
2021/10/02 09:35:58;;;;;;;3.00;1.90;;;;;;;;;;5018663;28;20183;-46
2021/10/02 09:38:24;;;;;;;3.15;1.85;;;;;;;;;;5018542;28;20172;-46
2021/10/02 09:40:52;;;;;;;3.65;1.70;;;;;;;;;;5018349;28;20188;-46
2021/10/02 09:43:18;;;;;;;3.63;1.50;;;;;;;;;;5022920;28;20179;-46
2021/10/02 09:45:45;;;;;;;4.15;1.63;;;;;;;;;;5028259;28;20470;-46
2021/10/02 09:48:14;;;;;;;3.00;1.83;;;;;;;;;;5018279;28;20586;-46
2021/10/02 09:50:43;;;;;;;2.03;1.50;;;;;;;;;;5019323;28;20176;-46
2021/10/02 09:53:17;;;;;;;3.08;1.75;;;;;;;;;;5017629;28;20176;-46
2021/10/02 09:55:49;;;;;;;4.50;1.80;;;;;;;;;;5034869;28;20558;-46
2021/10/02 09:58:18;;;;;;;2.35;1.45;;;;;;;;;;5034332;28;20219;-46
2021/10/02 10:00:46;;;;;;;2.75;1.58;;;;;;;;;;5017808;28;20220;-46
2021/10/02 10:03:13;;;;;;;2.58;1.50;;;;;;;;;;5023358;28;20223;-46
2021/10/02 10:05:50;;;;;;;3.20;1.80;;;;;;;;;;5035061;28;20223;-46
2021/10/02 10:08:22;;;;;;;3.72;1.77;;;;;;;;;;5037613;28;20259;-46
2021/10/02 10:10:48;;;;;;;3.00;1.63;;;;;;;;;;5036471;28;20179;-46
2021/10/02 10:13:15;;;;;;;2.85;1.40;;;;;;;;;;5027128;28;20217;-46
2021/10/02 10:15:41;;;;;;;3.25;1.83;;;;;;;;;;5037083;28;20176;-46
2021/10/02 10:18:08;;;;;;;3.08;1.63;;;;;;;;;;5028347;28;20188;-46
2021/10/02 10:20:39;;;;;;;2.03;1.45;;;;;;;;;;5017667;28;20215;-46
2021/10/02 10:23:06;;;;;;;2.05;1.55;;;;;;;;;;5017375;28;20191;-46
2021/10/02 10:25:32;;;;;;;2.28;1.45;;;;;;;;;;5021957;28;20195;-46
2021/10/02 10:28:00;;;;;;;2.53;1.63;;;;;;;;;;5029109;28;20169;-46
2021/10/02 10:30:27;;;;;;;2.50;1.60;;;;;;;;;;5017284;28;20166;-46
2021/10/02 10:33:08;;;;;;;3.35;1.52;;;;;;;;;;5016808;28;20165;-46
2021/10/02 10:35:38;;;;;;;2.65;1.52;;;;;;;;;;5032259;28;20287;-46
2021/10/02 10:38:06;;;;;;;4.35;1.70;;;;;;;;;;5036679;28;20179;-46
2021/10/02 10:40:32;;;;;;;2.17;1.60;;;;;;;;;;5021557;28;20199;-46
2021/10/02 10:42:58;;;;;;;1.73;1.30;;;;;;;;;;5016617;28;20172;-46
2021/10/02 10:45:25;;;;;;;1.80;1.40;;;;;;;;;;5016785;28;20584;-46
2021/10/02 10:47:52;;;;;;;4.22;1.60;;;;;;;;;;5017332;28;20172;-46
2021/10/02 10:50:18;;;;;;;1.50;1.23;;;;;;;;;;5028509;28;20184;-46
2021/10/02 10:52:44;;;;;;;2.80;1.30;;;;;;;;;;5019818;28;20235;-46
2021/10/02 10:55:22;;;;;;;2.30;1.35;;;;;;;;;;5031143;28;20184;-46
2021/10/02 10:57:52;;;;;;;2.83;1.52;;;;;;;;;;5035953;28;20739;-46
2021/10/02 11:00:21;;;;;;;1.75;1.48;;;;;;;;;;5020839;28;20206;-47
2021/10/02 11:02:55;;;;;;;2.08;1.30;;;;;;;;;;5023346;28;20196;-46
2021/10/02 11:05:39;;;;;;;1.90;1.27;;;;;;;;;;5035037;28;20203;-46
2021/10/02 11:08:05;;;;;;;1.55;1.20;;;;;;;;;;5019776;28;20172;-46
2021/10/02 11:10:43;;;;;;;1.67;1.10;;;;;;;;;;5016719;28;20192;-46
2021/10/02 11:13:14;;;;;;;1.67;1.40;;;;;;;;;;5032721;28;21015;-46
2021/10/02 11:15:41;;;;;;;2.30;1.63;;;;;;;;;;5017936;28;20555;-46
2021/10/02 11:18:27;;;;;;;2.40;1.40;;;;;;;;;;5016472;28;20238;-46
2021/10/02 11:21:03;;;;;;;1.20;1.10;;;;;;;;;;5016369;28;20271;-46
2021/10/02 11:23:48;;;;;;;1.05;0.95;;;;;;;;;;5022981;28;20191;-46
2021/10/02 11:26:18;;;;;;;1.30;1.20;;;;;;;;;;5035157;28;20199;-46
2021/10/02 11:28:45;;;;;;;1.10;1.00;;;;;;;;;;5035879;28;20172;-46
2021/10/02 11:31:13;;;;;;;2.22;1.30;;;;;;;;;;5034529;28;20274;-47
2021/10/02 11:33:42;;;;;;;1.10;1.00;;;;;;;;;;5030855;28;20181;-46
2021/10/02 11:36:27;;;;;;;1.58;1.40;;;;;;;;;;5016129;28;20540;-46
2021/10/02 11:39:09;;;;;;;2.47;1.27;;;;;;;;;;5028048;28;20270;-46
2021/10/02 11:41:36;;;;;;;1.33;1.10;;;;;;;;;;5034934;28;20176;-46
2021/10/02 11:44:03;;;;;;;2.17;1.45;;;;;;;;;;5015418;28;20278;-46
2021/10/02 11:46:29;;;;;;;1.67;1.10;;;;;;;;;;5015651;28;20216;-46
2021/10/02 11:49:11;;;;;;;1.77;1.20;;;;;;;;;;5033107;28;20184;-46
2021/10/02 11:51:37;;;;;;;1.13;1.02;;;;;;;;;;5035009;28;20183;-47
2021/10/02 11:54:21;;;;;;;1.88;1.30;;;;;;;;;;5030986;28;20561;-46
2021/10/02 11:57:06;;;;;;;1.67;1.17;;;;;;;;;;5016895;28;20192;-46
2021/10/02 11:59:31;;;;;;;1.58;1.30;;;;;;;;;;5015374;28;20260;-46
2021/10/02 12:02:03;;;;;;;1.50;1.05;;;;;;;;;;5027841;28;20278;-46
2021/10/02 12:04:29;;;;;;;2.38;1.20;;;;;;;;;;5030385;28;20186;-46
2021/10/02 12:06:55;;;;;;;1.58;1.38;;;;;;;;;;5018747;28;20207;-46
2021/10/02 12:09:21;;;;;;;1.38;1.20;;;;;;;;;;5015442;28;20204;-46
2021/10/02 12:11:49;;;;;;;1.52;1.10;;;;;;;;;;5029314;28;20458;-46
2021/10/02 12:14:22;;;;;;;1.20;1.10;;;;;;;;;;5016726;28;20180;-46
2021/10/02 12:16:52;;;;;;;1.27;1.10;;;;;;;;;;5034584;28;20198;-46
2021/10/02 12:19:22;;;;;;;2.05;1.45;;;;;;;;;;5034061;28;20193;-46
2021/10/02 12:21:48;;;;;;;1.80;1.25;;;;;;;;;;5019574;28;20663;-46
2021/10/02 12:24:14;;;;;;;2.13;1.20;;;;;;;;;;5029214;28;20200;-46
2021/10/02 12:26:42;;;;;;;1.17;0.90;;;;;;;;;;5034223;28;20649;-46
2021/10/02 12:29:10;;;;;;;2.67;1.13;;;;;;;;;;5032401;28;20207;-46
2021/10/02 12:31:42;;;;;;;1.27;1.17;;;;;;;;;;5020873;28;20176;-46
2021/10/02 12:34:16;;;;;;;1.30;1.20;;;;;;;;;;5014688;28;20184;-46
2021/10/02 12:36:43;;;;;;;1.20;1.10;;;;;;;;;;5015027;28;20563;-46
2021/10/02 12:39:09;;;;;;;1.88;1.00;;;;;;;;;;5030640;28;20613;-46
2021/10/02 12:41:40;;;;;;;1.17;1.00;;;;;;;;;;5031458;28;20500;-46
2021/10/02 12:44:06;;;;;;;1.20;1.10;;;;;;;;;;5029048;28;20523;-47
2021/10/02 12:46:32;;;;;;;1.38;1.00;;;;;;;;;;5033935;28;20214;-47
2021/10/02 12:48:58;;;;;;;1.20;1.10;;;;;;;;;;5034784;28;20906;-47
2021/10/02 12:51:24;;;;;;;1.48;0.90;;;;;;;;;;5034284;28;20287;-46
2021/10/02 12:53:50;;;;;;;1.90;1.17;;;;;;;;;;5031548;28;20582;-46
2021/10/02 12:56:17;;;;;;;1.15;1.05;;;;;;;;;;5021160;28;20207;-46
2021/10/02 12:58:43;;;;;;;2.03;1.20;;;;;;;;;;5014779;28;20200;-47
2021/10/02 13:01:10;;;;;;;1.20;1.10;;;;;;;;;;5031256;28;20218;-46
2021/10/02 13:03:40;;;;;;;1.33;1.13;;;;;;;;;;5029441;28;20268;-46
2021/10/02 13:06:06;;;;;;;1.13;1.02;;;;;;;;;;5033357;28;20227;-46
2021/10/02 13:08:32;;;;;;;1.38;1.10;;;;;;;;;;5032615;28;20278;-46
2021/10/02 13:10:58;;;;;;;1.20;1.00;;;;;;;;;;5025134;28;20267;-46
2021/10/02 13:13:24;;;;;;;1.35;1.13;;;;;;;;;;5033569;28;20195;-46
2021/10/02 13:15:50;;;;;;;1.10;1.00;;;;;;;;;;5026831;28;20243;-46
2021/10/02 13:18:18;;;;;;;1.10;0.95;;;;;;;;;;5027566;28;20191;-46
2021/10/02 13:20:44;;;;;;;1.00;0.90;;;;;;;;;;5026366;28;20188;-46
2021/10/02 13:23:10;;;;;;;2.10;1.10;;;;;;;;;;5022952;28;20459;-46
2021/10/02 13:25:59;;;;;;;1.25;1.05;;;;;;;;;;5033287;28;20219;-46
2021/10/02 13:28:25;;;;;;;1.25;1.15;;;;;;;;;;5030611;28;20275;-46
2021/10/02 13:30:51;;;;;;;2.10;1.20;;;;;;;;;;5024797;28;20259;-47
2021/10/02 13:33:18;;;;;;;1.10;1.00;;;;;;;;;;5014925;28;20191;-46
2021/10/02 13:35:49;;;;;;;1.10;1.00;;;;;;;;;;5020783;28;20179;-47
2021/10/02 13:38:15;;;;;;;1.10;1.00;;;;;;;;;;5034358;28;20167;-46
2021/10/02 13:40:52;;;;;;;1.25;1.10;;;;;;;;;;5033725;28;20282;-46
2021/10/02 13:43:20;;;;;;;0.75;0.75;;;;;;;;;;5015800;28;20556;-46
2021/10/02 13:45:48;;;;;;;1.73;1.15;;;;;;;;;;5014037;28;20209;-46
2021/10/02 13:48:15;;;;;;;1.83;1.17;;;;;;;;;;5014492;28;20169;-46
2021/10/02 13:50:42;;;;;;;1.20;1.00;;;;;;;;;;5014649;28;20191;-46
2021/10/02 13:53:08;;;;;;;0.90;0.90;;;;;;;;;;5033581;28;20172;-46
2021/10/02 13:55:35;;;;;;;1.40;1.05;;;;;;;;;;5017599;28;20184;-46
2021/10/02 13:58:02;;;;;;;1.33;1.20;;;;;;;;;;5015346;28;20563;-46
2021/10/02 14:00:29;;;;;;;1.50;1.13;;;;;;;;;;5014001;28;20232;-46
2021/10/02 14:02:56;;;;;;;1.15;1.10;;;;;;;;;;5017369;28;20287;-46
2021/10/02 14:05:23;;;;;;;1.33;1.10;;;;;;;;;;5032452;28;20220;-47
2021/10/02 14:07:49;;;;;;;1.10;1.00;;;;;;;;;;5018005;28;20258;-46
2021/10/02 14:10:16;;;;;;;1.42;1.08;;;;;;;;;;5017574;28;20173;-46
2021/10/02 14:12:42;;;;;;;1.10;1.00;;;;;;;;;;5031951;28;20176;-46
2021/10/02 14:15:09;;;;;;;4.22;1.15;;;;;;;;;;5036610;28;20195;-46
2021/10/02 14:17:35;;;;;;;1.20;1.10;;;;;;;;;;5036355;28;20194;-46
2021/10/02 14:20:01;;;;;;;1.42;1.08;;;;;;;;;;5022951;28;20258;-46
2021/10/02 14:22:28;;;;;;;1.42;1.10;;;;;;;;;;5037466;28;20171;-46
2021/10/02 14:24:54;;;;;;;1.45;0.98;;;;;;;;;;5033097;28;20215;-46
2021/10/02 14:27:20;;;;;;;1.20;1.10;;;;;;;;;;5017693;28;20164;-46
2021/10/02 14:29:46;;;;;;;1.27;1.10;;;;;;;;;;5034931;28;20172;-46
2021/10/02 14:32:12;;;;;;;2.08;1.33;;;;;;;;;;5016700;28;20559;-46
2021/10/02 14:34:38;;;;;;;1.33;1.00;;;;;;;;;;5031529;28;20211;-46
2021/10/02 14:37:05;;;;;;;1.20;1.10;;;;;;;;;;5037166;28;20172;-46
2021/10/02 14:39:31;;;;;;;1.45;0.82;;;;;;;;;;5035145;28;20559;-46
2021/10/02 14:41:57;;;;;;;1.27;1.17;;;;;;;;;;5020515;28;20177;-46
2021/10/02 14:44:23;;;;;;;1.17;1.02;;;;;;;;;;5016638;28;20219;-46
2021/10/02 14:46:50;;;;;;;1.40;1.30;;;;;;;;;;5017144;28;20254;-46
2021/10/02 14:49:16;;;;;;;1.10;1.00;;;;;;;;;;5018815;28;20184;-46
2021/10/02 14:51:44;;;;;;;1.25;1.08;;;;;;;;;;5035184;28;20465;-46
2021/10/02 14:54:10;;;;;;;1.55;1.20;;;;;;;;;;5019949;28;20204;-46
2021/10/02 14:56:38;;;;;;;1.50;1.40;;;;;;;;;;5019491;28;20552;-46
2021/10/02 14:59:05;;;;;;;1.10;1.00;;;;;;;;;;5032785;28;20412;-46
2021/10/02 15:01:32;;;;;;;1.80;1.35;;;;;;;;;;5036667;28;20196;-46
2021/10/02 15:03:59;;;;;;;1.70;1.20;;;;;;;;;;5031629;28;20194;-46
2021/10/02 15:06:26;;;;;;;1.40;1.25;;;;;;;;;;5025874;28;20241;-46
2021/10/02 15:08:51;;;;;;;1.48;1.30;;;;;;;;;;5021665;28;20203;-46
2021/10/02 15:11:17;;;;;;;0.95;0.90;;;;;;;;;;5016446;28;20220;-46
2021/10/02 15:13:44;;;;;;;1.35;1.10;;;;;;;;;;5016146;28;20528;-46
2021/10/02 15:16:10;;;;;;;1.48;1.05;;;;;;;;;;5015975;28;20180;-46
2021/10/02 15:18:36;;;;;;;1.20;1.10;;;;;;;;;;5016795;28;20575;-46
2021/10/02 15:21:12;;;;;;;1.20;1.10;;;;;;;;;;5028803;28;20462;-46
2021/10/02 15:23:44;;;;;;;1.33;1.02;;;;;;;;;;5016985;28;20242;-46
2021/10/02 15:26:13;;;;;;;2.47;1.02;;;;;;;;;;5016596;28;20208;-46
2021/10/02 15:28:42;;;;;;;1.23;1.20;;;;;;;;;;5016558;28;20192;-46
2021/10/02 15:31:08;;;;;;;1.30;1.20;;;;;;;;;;5035586;28;20224;-46
2021/10/02 15:33:34;;;;;;;1.20;1.00;;;;;;;;;;5030263;28;20204;-46
2021/10/02 15:36:01;;;;;;;1.00;1.00;;;;;;;;;;5015886;28;20180;-46